Airfield :
LOGIN :

Register | Disclaimer

   EN    FR    IT 

 










Legend :    VFR   Marginal VFR   IFR   Intensive IFR   Very Intensive IFR
Visi :
Ceiling :
>= 8 km
>= 3000ft
5 to 8 km
1000 to 3000 ft
1500m to 5 km
500 to 1000 ft
800 to 1500m
200 to 500 ft
< 800m
< 200 ft
Symbols :   Thunderstorms  Fog  Heavy snow  Heavy precipitations  Wind > 20 kt
SIGMETs :     Misc.  Thunderstorms  Icing  Turbulence  Mountain Waves  Volcanic Ashes






- Airport Elevation : 286 ft
- IATA code : FFD


EGVA - RAF Fairford

CURRENT METAR :
  • 261756Z AUTO 23003KT 9999 CLR 07/05 A2951 RMK AO2 SLP998 T00730051 10136 20070 52017 $

EXPIRED METARs :
  • 261656Z AUTO 27008KT 9999 CLR 09/06 A2950 RMK AO2 SLP994 T00940056 $
  • 261556Z AUTO 27012KT 9999 FEW035 FEW060 SCT090 11/07 A2948 RMK AO2 SLP988 T01080065 $

TAF AMD TAF EGVA
Valid from the 26 at 17:00 until the 27 at 19:00 UTC


261727Z 2617/2719 27009KT 9999 SCT030 QNH2948INS
BECMG 2707/2708 18010G15KT 8000 -SHRA SCT006 BKN010 OVC015 610709 QNH2938INS
TEMPO 2708/2711 4000 SHRA BKN008
BECMG 2710/2711 18015G25KT 6000 -SHRA SCT008 BKN012 OVC020 QNH2934INS
BECMG 2713/2714 24012G20KT 8000 -SHRA SCT012 BKN020 QNH2935INS
BECMG 2716/2717 24009KT 9999 NSW SCT020 QNH2941INS TX13/2713Z TN05/2702Z LAST NO AMDS AFT 2617 NEXT 2707



MET'MAP, your aeronautical weather chart ! - Copyright ORBIFLY December 2007 - Disclaimer

ORBIFLY MET'MAP TEAM :

Programming & Development : Alexandra Zaïnal
Concept & original design : Baudouin d'Aumeries
Assistance for programming : Marc-Olivier Méhu
Technical & hardware support : Manuel Goepfert

Contact : metmap@orbifly.com




SOURCES & CREDITS :

   NOAA